createdAt,value
2022-10-11T00:02:00.242Z,57.50
2022-10-11T00:04:27.796Z,57.84
2022-10-11T00:06:55.090Z,57.81
2022-10-11T00:09:22.541Z,57.79
2022-10-11T00:11:50.088Z,57.83
2022-10-11T00:14:17.409Z,57.58
2022-10-11T00:16:44.751Z,57.65
2022-10-11T00:19:12.302Z,57.60
2022-10-11T00:21:39.612Z,57.68
2022-10-11T00:24:07.034Z,57.68
2022-10-11T00:26:34.703Z,57.61
2022-10-11T00:29:02.236Z,57.90
2022-10-11T00:31:34.687Z,57.86
2022-10-11T00:34:03.350Z,57.88
2022-10-11T00:36:30.704Z,57.92
2022-10-11T00:38:59.006Z,57.66
2022-10-11T00:41:26.608Z,57.52
2022-10-11T00:44:29.644Z,57.75
2022-10-11T00:47:09.537Z,58.13
2022-10-11T00:49:59.915Z,57.63
2022-10-11T00:52:33.426Z,57.57
2022-10-11T00:55:14.757Z,57.65
2022-10-11T00:57:44.371Z,58.01
2022-10-11T01:00:13.041Z,57.83
2022-10-11T01:02:40.977Z,57.89
2022-10-11T01:05:28.735Z,57.94
2022-10-11T01:07:59.283Z,58.30
2022-10-11T01:10:27.801Z,58.10
2022-10-11T01:13:40.508Z,58.36
2022-10-11T01:16:15.549Z,58.48
2022-10-11T01:19:27.320Z,58.63
2022-10-11T01:22:06.567Z,58.56
2022-10-11T01:24:44.791Z,58.28
2022-10-11T01:27:38.856Z,58.43
2022-10-11T01:30:22.630Z,58.62
2022-10-11T01:33:05.221Z,58.29
2022-10-11T01:35:42.750Z,58.69
2022-10-11T01:38:14.548Z,58.73
2022-10-11T01:40:55.448Z,58.21
2022-10-11T01:43:23.964Z,58.23
2022-10-11T01:45:52.625Z,58.27
2022-10-11T01:48:20.301Z,58.34
2022-10-11T01:50:50.697Z,58.56
2022-10-11T01:53:22.920Z,58.48
2022-10-11T01:55:55.594Z,58.21
2022-10-11T01:58:32.459Z,58.56
2022-10-11T02:01:44.864Z,58.64
2022-10-11T02:04:19.473Z,58.90
2022-10-11T02:07:00.815Z,58.92
2022-10-11T02:09:43.184Z,58.86
2022-10-11T02:12:14.468Z,58.54
2022-10-11T02:14:44.288Z,58.74
2022-10-11T02:17:17.980Z,58.77
2022-10-11T02:19:48.172Z,58.61
2022-10-11T02:22:19.500Z,58.61
2022-10-11T02:24:50.364Z,58.61
2022-10-11T02:27:20.588Z,58.85
2022-10-11T02:29:48.473Z,58.69
2022-10-11T02:32:17.661Z,58.89
2022-10-11T02:34:49.116Z,58.73
2022-10-11T02:37:27.876Z,58.92
2022-10-11T02:40:07.237Z,58.69
2022-10-11T02:42:38.934Z,58.54
2022-10-11T02:45:13.022Z,58.89
2022-10-11T02:47:41.491Z,58.67
2022-10-11T02:50:11.504Z,58.79
2022-10-11T02:52:38.884Z,58.66
2022-10-11T02:55:07.512Z,58.73
2022-10-11T02:57:34.815Z,58.87
2022-10-11T03:00:02.400Z,58.57
2022-10-11T03:02:30.039Z,58.68
2022-10-11T03:04:57.583Z,58.85
2022-10-11T03:07:24.887Z,58.83
2022-10-11T03:09:52.524Z,58.81
2022-10-11T03:12:19.876Z,59.01
2022-10-11T03:14:47.188Z,59.27
2022-10-11T03:17:35.140Z,58.98
2022-10-11T03:20:02.074Z,58.76
2022-10-11T03:22:29.632Z,59.11
2022-10-11T03:25:02.513Z,59.30
2022-10-11T03:27:32.714Z,58.90
2022-10-11T03:30:00.298Z,59.09
2022-10-11T03:32:27.621Z,58.73
2022-10-11T03:34:55.261Z,59.65
2022-10-11T03:37:22.609Z,59.22
2022-10-11T03:39:50.265Z,59.35
2022-10-11T03:42:17.907Z,59.48
2022-10-11T03:44:45.245Z,59.34
2022-10-11T03:47:12.760Z,59.32
2022-10-11T03:49:43.614Z,59.54
2022-10-11T03:52:11.697Z,59.77
2022-10-11T03:54:39.000Z,59.78
2022-10-11T03:57:07.239Z,59.88
2022-10-11T03:59:34.548Z,60.22
2022-10-11T04:02:02.008Z,60.07
2022-10-11T04:04:29.633Z,59.54
2022-10-11T04:06:57.020Z,59.84
2022-10-11T04:09:24.453Z,60.05
2022-10-11T04:11:52.106Z,60.03
2022-10-11T04:14:19.408Z,59.78
2022-10-11T04:16:46.715Z,60.00
2022-10-11T04:19:14.271Z,60.17
2022-10-11T04:21:41.562Z,60.06
2022-10-11T04:24:11.103Z,59.58
2022-10-11T04:26:38.653Z,59.95
2022-10-11T04:29:06.119Z,60.11
2022-10-11T04:31:33.441Z,59.50
2022-10-11T04:34:01.135Z,59.78
2022-10-11T04:36:28.509Z,59.99
2022-10-11T04:38:56.234Z,59.85
2022-10-11T04:41:23.823Z,59.32
2022-10-11T04:43:51.116Z,61.51
2022-10-11T04:46:18.414Z,59.32
2022-10-11T04:48:45.971Z,59.03
2022-10-11T04:51:13.255Z,59.23
2022-10-11T04:53:40.548Z,59.61
2022-10-11T04:56:11.537Z,59.35
2022-10-11T04:58:40.944Z,59.63
2022-10-11T05:01:09.699Z,59.80
2022-10-11T05:03:37.746Z,59.66
2022-10-11T05:06:06.305Z,59.58
2022-10-11T05:08:34.125Z,59.81
2022-10-11T05:11:04.027Z,59.84
2022-10-11T05:13:32.059Z,59.46
2022-10-11T05:15:59.622Z,59.77
2022-10-11T05:18:27.105Z,60.42
2022-10-11T05:21:23.838Z,60.25
2022-10-11T05:23:52.855Z,60.22
2022-10-11T05:26:20.448Z,60.43
2022-10-11T05:28:48.150Z,60.87
2022-10-11T05:31:16.233Z,60.73
2022-10-11T05:33:43.577Z,60.89
2022-10-11T05:36:11.404Z,60.87
2022-10-11T05:38:39.455Z,60.82
2022-10-11T05:41:09.181Z,60.55
2022-10-11T05:43:36.516Z,60.56
2022-10-11T05:46:04.363Z,60.70
2022-10-11T05:48:31.805Z,60.92
2022-10-11T05:51:03.537Z,60.90
2022-10-11T05:53:31.452Z,61.13
2022-10-11T05:55:59.546Z,61.45
2022-10-11T05:58:26.863Z,61.28
2022-10-11T06:00:56.696Z,61.19
2022-10-11T06:03:24.304Z,61.46
2022-10-11T06:05:56.501Z,61.26
2022-10-11T06:08:24.665Z,61.47
2022-10-11T06:10:52.044Z,61.18
2022-10-11T06:13:19.330Z,60.39
2022-10-11T06:15:46.875Z,60.58
2022-10-11T06:18:15.150Z,60.46
2022-10-11T06:20:42.464Z,60.50
2022-10-11T06:23:10.035Z,60.74
2022-10-11T06:25:37.345Z,61.24
2022-10-11T06:28:04.723Z,60.95
2022-10-11T06:30:32.292Z,61.33
2022-10-11T06:33:04.472Z,61.01
2022-10-11T06:35:32.470Z,60.86
2022-10-11T06:37:59.765Z,60.77
2022-10-11T06:40:27.104Z,60.65
2022-10-11T06:42:54.753Z,60.86
2022-10-11T06:45:22.278Z,60.86
2022-10-11T06:47:49.571Z,61.10
2022-10-11T06:50:25.879Z,61.39
2022-10-11T06:53:03.147Z,60.91
2022-10-11T06:55:31.908Z,60.73
2022-10-11T06:57:59.193Z,58.90
2022-10-11T07:00:26.851Z,58.50
2022-10-11T07:02:54.429Z,58.37
2022-10-11T07:05:21.727Z,57.71
2022-10-11T07:07:49.015Z,57.40
2022-10-11T07:10:16.633Z,57.04
2022-10-11T07:12:44.868Z,55.95
2022-10-11T07:15:12.270Z,55.73
2022-10-11T07:17:39.856Z,55.17
2022-10-11T07:20:07.564Z,55.60
2022-10-11T07:22:34.988Z,55.86
2022-10-11T07:25:02.958Z,55.06
2022-10-11T07:27:30.252Z,54.13
2022-10-11T07:29:57.681Z,53.91
2022-10-11T07:32:25.288Z,53.63
2022-10-11T07:34:52.550Z,53.08
2022-10-11T07:37:20.299Z,52.80
2022-10-11T07:39:49.147Z,52.53
2022-10-11T07:42:16.430Z,53.24
2022-10-11T07:44:43.768Z,53.32
2022-10-11T07:47:11.659Z,51.88
2022-10-11T07:49:38.996Z,51.90
2022-10-11T07:52:06.331Z,51.31
2022-10-11T07:54:33.868Z,50.92
2022-10-11T07:57:01.168Z,50.83
2022-10-11T07:59:28.557Z,50.89
2022-10-11T08:01:56.188Z,50.28
2022-10-11T08:04:23.774Z,50.21
2022-10-11T08:06:53.304Z,50.14
2022-10-11T08:09:20.862Z,49.72
2022-10-11T08:11:48.445Z,49.58
2022-10-11T08:14:15.821Z,49.58
2022-10-11T08:16:43.098Z,48.85
2022-10-11T08:19:10.829Z,48.86
2022-10-11T08:21:38.149Z,49.30
2022-10-11T08:24:06.086Z,48.39
2022-10-11T08:26:33.692Z,48.38
2022-10-11T08:29:04.343Z,48.36
2022-10-11T08:31:32.862Z,48.18
2022-10-11T08:34:00.870Z,48.42
2022-10-11T08:36:28.223Z,47.91
2022-10-11T08:38:55.527Z,47.76
2022-10-11T08:41:27.161Z,48.25
2022-10-11T08:43:57.519Z,47.81
2022-10-11T08:46:28.724Z,47.95
2022-10-11T08:48:56.135Z,47.93
2022-10-11T08:51:38.540Z,47.37
2022-10-11T08:54:31.170Z,47.55
2022-10-11T08:56:58.621Z,47.43
2022-10-11T08:59:35.089Z,47.20
2022-10-11T09:02:11.151Z,47.29
2022-10-11T09:04:39.229Z,46.93
2022-10-11T09:07:44.916Z,46.75
2022-10-11T09:10:31.193Z,46.04
2022-10-11T09:13:31.442Z,46.22
2022-10-11T09:16:10.916Z,46.98
2022-10-11T09:18:47.136Z,46.59
2022-10-11T09:21:48.364Z,46.10
2022-10-11T09:24:18.627Z,46.72
2022-10-11T09:26:52.134Z,47.07
2022-10-11T09:29:28.736Z,47.50
2022-10-11T09:31:57.323Z,46.85
2022-10-11T09:34:27.605Z,46.67
2022-10-11T09:37:03.766Z,46.57
2022-10-11T09:39:36.661Z,46.64
2022-10-11T09:42:09.611Z,47.80
2022-10-11T09:44:49.583Z,47.55
2022-10-11T09:47:27.542Z,47.03
2022-10-11T09:50:06.496Z,47.18
2022-10-11T09:52:33.866Z,46.57
2022-10-11T09:55:03.264Z,46.46
2022-10-11T09:57:32.599Z,45.85
2022-10-11T10:00:01.717Z,45.64
2022-10-11T10:02:48.768Z,44.91
2022-10-11T10:05:27.639Z,44.84
2022-10-11T10:08:09.848Z,45.09
2022-10-11T10:10:38.974Z,43.66
2022-10-11T10:13:29.085Z,43.68
2022-10-11T10:16:01.158Z,43.71
2022-10-11T10:18:37.377Z,43.25
2022-10-11T10:21:09.172Z,43.58
2022-10-11T10:23:37.336Z,43.41
2022-10-11T10:26:17.203Z,42.94
2022-10-11T10:29:04.073Z,43.21
2022-10-11T10:32:14.240Z,43.29
2022-10-11T10:35:37.228Z,43.93
2022-10-11T10:38:26.358Z,43.29
2022-10-11T10:40:58.030Z,43.20
2022-10-11T10:43:36.214Z,44.08
2022-10-11T10:46:18.091Z,43.80
2022-10-11T10:49:23.601Z,43.82
2022-10-11T10:51:50.899Z,43.96
2022-10-11T10:54:24.835Z,43.68
2022-10-11T10:57:31.567Z,43.67
2022-10-11T11:00:04.157Z,43.62
2022-10-11T11:02:59.590Z,43.51
2022-10-11T11:05:33.818Z,43.66
2022-10-11T11:08:15.336Z,43.25
2022-10-11T11:10:56.046Z,43.04
2022-10-11T11:13:41.857Z,42.42
2022-10-11T11:16:26.345Z,42.36
2022-10-11T11:18:57.139Z,42.09
2022-10-11T11:21:44.896Z,42.08
2022-10-11T11:25:05.844Z,42.10
2022-10-11T11:27:40.714Z,42.00
2022-10-11T11:30:17.275Z,42.15
2022-10-11T11:33:05.407Z,42.19
2022-10-11T11:35:53.815Z,41.93
2022-10-11T11:38:40.702Z,42.31
2022-10-11T11:41:14.649Z,42.36
2022-10-11T11:44:25.112Z,41.73
2022-10-11T11:47:01.688Z,41.65
2022-10-11T11:49:34.334Z,42.23
2022-10-11T11:52:04.301Z,41.94
2022-10-11T11:55:13.139Z,41.51
2022-10-11T11:57:52.459Z,41.52
2022-10-11T12:00:22.490Z,42.53
2022-10-11T12:02:56.248Z,42.68
2022-10-11T12:05:27.487Z,42.90
2022-10-11T12:08:08.314Z,44.43
2022-10-11T12:10:35.692Z,44.26
2022-10-11T12:13:09.284Z,43.88
2022-10-11T12:15:37.010Z,43.70
2022-10-11T12:18:15.485Z,44.04
2022-10-11T12:20:44.014Z,44.34
2022-10-11T12:23:29.969Z,44.72
2022-10-11T12:26:19.274Z,44.13
2022-10-11T12:29:05.847Z,43.03
2022-10-11T12:31:35.830Z,42.92
2022-10-11T12:34:09.523Z,43.32
2022-10-11T12:36:39.520Z,42.69
2022-10-11T12:39:19.314Z,42.63
2022-10-11T12:41:49.233Z,42.27
2022-10-11T12:44:26.269Z,43.30
2022-10-11T12:46:53.773Z,42.47
2022-10-11T12:49:31.071Z,42.62
2022-10-11T12:52:05.594Z,42.90
2022-10-11T12:54:45.258Z,42.52
2022-10-11T12:57:49.597Z,42.61
2022-10-11T13:00:32.506Z,43.27
2022-10-11T13:03:05.332Z,43.46
2022-10-11T13:05:43.211Z,43.92
2022-10-11T13:08:16.660Z,44.40
2022-10-11T13:10:45.351Z,44.97
2022-10-11T13:13:24.966Z,44.42
2022-10-11T13:15:54.529Z,45.24
2022-10-11T13:18:24.230Z,45.38
2022-10-11T13:20:51.527Z,44.89
2022-10-11T13:23:25.069Z,44.88
2022-10-11T13:25:52.957Z,44.32
2022-10-11T13:28:21.343Z,44.66
2022-10-11T13:30:54.983Z,45.00
2022-10-11T13:33:32.113Z,44.53
2022-10-11T13:35:59.855Z,44.68
2022-10-11T13:38:34.507Z,44.82
2022-10-11T13:41:04.695Z,43.81
2022-10-11T13:43:32.602Z,44.16
2022-10-11T13:46:01.545Z,43.78
2022-10-11T13:48:31.850Z,44.10
2022-10-11T13:51:07.158Z,44.21
2022-10-11T13:53:34.602Z,43.88
2022-10-11T13:56:05.507Z,43.54
2022-10-11T13:58:40.391Z,43.09
2022-10-11T14:01:17.315Z,43.08
2022-10-11T14:03:48.479Z,43.52
2022-10-11T14:06:15.811Z,44.20
2022-10-11T14:08:44.435Z,44.76
2022-10-11T14:11:13.516Z,44.01
2022-10-11T14:13:44.391Z,44.44
2022-10-11T14:16:21.023Z,44.78
2022-10-11T14:18:50.712Z,44.53
2022-10-11T14:21:35.432Z,44.92
2022-10-11T14:24:08.047Z,44.98
2022-10-11T14:26:42.215Z,44.83
2022-10-11T14:29:17.983Z,45.37
2022-10-11T14:31:45.563Z,45.08
2022-10-11T14:34:20.883Z,45.57
2022-10-11T14:36:49.038Z,46.28
2022-10-11T14:39:19.341Z,47.12
2022-10-11T14:41:47.098Z,46.73
2022-10-11T14:44:16.621Z,46.89
2022-10-11T14:46:45.461Z,47.00
2022-10-11T14:49:22.060Z,47.35
2022-10-11T14:51:51.026Z,47.37
2022-10-11T14:54:24.180Z,47.58
2022-10-11T14:56:53.256Z,47.69
2022-10-11T14:59:22.991Z,47.86
2022-10-11T15:01:54.232Z,48.13
2022-10-11T15:04:23.635Z,48.87
2022-10-11T15:06:52.172Z,49.22
2022-10-11T15:09:23.123Z,49.64
2022-10-11T15:11:52.628Z,49.63
2022-10-11T15:14:20.162Z,50.50
2022-10-11T15:16:47.635Z,50.32
2022-10-11T15:19:17.720Z,50.46
2022-10-11T15:21:45.583Z,50.93
2022-10-11T15:24:13.091Z,51.32
2022-10-11T15:26:40.817Z,51.62
2022-10-11T15:29:11.719Z,51.33
2022-10-11T15:31:39.572Z,51.22
2022-10-11T15:34:07.265Z,51.49
2022-10-11T15:36:34.624Z,51.50
2022-10-11T15:39:01.914Z,52.08
2022-10-11T15:41:29.490Z,52.26
2022-10-11T15:43:56.824Z,52.40
2022-10-11T15:46:24.168Z,52.58
2022-10-11T15:48:52.256Z,52.75
2022-10-11T15:51:19.595Z,52.97
2022-10-11T15:53:47.042Z,53.18
2022-10-11T15:56:18.611Z,53.39
2022-10-11T15:58:46.089Z,53.42
2022-10-11T16:01:19.358Z,53.61
2022-10-11T16:03:48.979Z,54.08
2022-10-11T16:06:17.368Z,54.26
2022-10-11T16:08:44.695Z,54.09
2022-10-11T16:11:12.691Z,54.22
2022-10-11T16:13:40.404Z,54.29
2022-10-11T16:16:09.681Z,54.42
2022-10-11T16:18:37.876Z,54.85
2022-10-11T16:21:08.994Z,55.06
2022-10-11T16:23:38.207Z,55.41
2022-10-11T16:26:08.556Z,55.82
2022-10-11T16:28:36.443Z,55.79
2022-10-11T16:31:08.545Z,55.83
2022-10-11T16:33:45.240Z,55.82
2022-10-11T16:36:36.463Z,55.89
2022-10-11T16:39:07.794Z,55.91
2022-10-11T16:41:35.217Z,55.77
2022-10-11T16:44:03.429Z,56.32
2022-10-11T16:46:32.499Z,56.33
2022-10-11T16:48:59.842Z,56.17
2022-10-11T16:51:27.163Z,56.12
2022-10-11T16:53:54.908Z,56.31
2022-10-11T16:56:24.103Z,56.31
2022-10-11T16:58:54.237Z,56.63
2022-10-11T17:01:22.031Z,56.47
2022-10-11T17:03:50.002Z,56.49
2022-10-11T17:06:18.257Z,56.63
2022-10-11T17:08:46.268Z,56.61
2022-10-11T17:11:13.659Z,56.66
2022-10-11T17:13:40.961Z,57.02
2022-10-11T17:16:08.919Z,57.19
2022-10-11T17:18:36.593Z,57.20
2022-10-11T17:21:06.630Z,57.42
2022-10-11T17:23:35.514Z,57.29
2022-10-11T17:26:11.215Z,57.82
2022-10-11T17:28:39.422Z,57.79
2022-10-11T17:31:07.817Z,57.68
2022-10-11T17:33:35.632Z,58.01
2022-10-11T17:36:13.203Z,57.88
2022-10-11T17:38:40.503Z,57.75
2022-10-11T17:41:08.976Z,57.75
2022-10-11T17:43:37.133Z,57.95
2022-10-11T17:46:06.332Z,57.90
2022-10-11T17:48:36.522Z,58.00
2022-10-11T17:51:07.382Z,57.91
2022-10-11T17:53:35.622Z,57.90
2022-10-11T17:56:07.832Z,57.98
2022-10-11T17:58:35.592Z,57.97
2022-10-11T18:01:08.887Z,58.02
2022-10-11T18:03:37.319Z,57.93
2022-10-11T18:06:06.449Z,57.79
2022-10-11T18:08:39.981Z,57.84
2022-10-11T18:11:13.096Z,57.70
2022-10-11T18:13:45.564Z,57.73
2022-10-11T18:16:14.734Z,57.67
2022-10-11T18:18:42.369Z,57.56
2022-10-11T18:21:10.041Z,57.68
2022-10-11T18:23:38.338Z,57.48
2022-10-11T18:26:13.555Z,57.77
2022-10-11T18:28:41.347Z,57.78
2022-10-11T18:31:13.335Z,57.64
2022-10-11T18:33:42.264Z,58.04
2022-10-11T18:36:10.953Z,58.02
2022-10-11T18:38:39.653Z,58.28
2022-10-11T18:41:08.814Z,58.21
2022-10-11T18:43:36.984Z,58.20
2022-10-11T18:46:12.623Z,58.40
2022-10-11T18:48:41.996Z,58.32
2022-10-11T18:51:12.404Z,58.02
2022-10-11T18:53:40.314Z,57.94
2022-10-11T18:56:09.610Z,57.93
2022-10-11T18:58:38.832Z,58.08
2022-10-11T19:01:17.631Z,57.77
2022-10-11T19:04:52.525Z,56.01
2022-10-11T19:07:20.901Z,56.01
2022-10-11T19:09:49.471Z,57.78
2022-10-11T19:12:17.280Z,57.80
2022-10-11T19:14:44.841Z,57.95
2022-10-11T19:17:12.664Z,57.86
2022-10-11T19:19:39.975Z,57.96
2022-10-11T19:22:07.565Z,58.09
2022-10-11T19:24:34.900Z,58.19
2022-10-11T19:27:03.119Z,58.19
2022-10-11T19:29:31.429Z,58.19
2022-10-11T19:32:00.104Z,58.26
2022-10-11T19:34:28.047Z,58.54
2022-10-11T19:36:56.510Z,58.44
2022-10-11T19:39:24.810Z,58.39
2022-10-11T19:41:52.579Z,58.59
2022-10-11T19:44:20.331Z,58.50
2022-10-11T19:46:52.474Z,58.44
2022-10-11T19:49:25.715Z,58.45
2022-10-11T19:51:53.736Z,58.76
2022-10-11T19:54:21.295Z,58.78
2022-10-11T19:56:48.704Z,58.60
2022-10-11T19:59:16.268Z,58.67
2022-10-11T20:01:47.914Z,58.32
2022-10-11T20:04:39.594Z,58.41
2022-10-11T20:07:04.497Z,58.69
2022-10-11T20:09:32.058Z,58.47
2022-10-11T20:11:59.393Z,58.55
2022-10-11T20:14:26.709Z,58.64
2022-10-11T20:16:54.268Z,58.46
2022-10-11T20:19:26.202Z,58.47
2022-10-11T20:21:55.447Z,58.19
2022-10-11T20:24:23.010Z,58.03
2022-10-11T20:26:50.302Z,57.77
2022-10-11T20:29:18.057Z,57.62
2022-10-11T20:31:45.350Z,57.62
2022-10-11T20:34:13.232Z,57.55
2022-10-11T20:36:41.209Z,57.84
2022-10-11T20:39:09.636Z,58.15
2022-10-11T20:41:39.975Z,57.96
2022-10-11T20:44:08.969Z,57.88
2022-10-11T20:46:38.311Z,57.97
2022-10-11T20:49:08.303Z,58.06
2022-10-11T20:51:37.185Z,58.49
2022-10-11T20:54:04.927Z,58.48
2022-10-11T20:56:33.765Z,58.33
2022-10-11T20:59:01.445Z,58.56
2022-10-11T21:01:34.554Z,58.28
2022-10-11T21:04:02.679Z,58.37
2022-10-11T21:06:31.108Z,58.53
2022-10-11T21:08:59.415Z,58.50
2022-10-11T21:11:28.511Z,58.53
2022-10-11T21:13:57.039Z,58.78
2022-10-11T21:16:25.171Z,58.85
2022-10-11T21:18:54.363Z,58.74
2022-10-11T21:21:23.788Z,58.50
2022-10-11T21:23:55.482Z,58.65
2022-10-11T21:26:23.081Z,58.71
2022-10-11T21:28:50.451Z,58.74
2022-10-11T21:31:19.693Z,58.96
2022-10-11T21:33:47.280Z,59.00
2022-10-11T21:36:17.123Z,59.03
2022-10-11T21:38:44.638Z,59.04
2022-10-11T21:41:15.500Z,59.04
2022-10-11T21:43:42.978Z,59.04
2022-10-11T21:46:20.364Z,58.97
2022-10-11T21:48:49.932Z,59.02
2022-10-11T21:51:27.745Z,59.50
2022-10-11T21:53:57.411Z,59.43
2022-10-11T21:56:24.686Z,59.59
2022-10-11T21:58:51.981Z,59.35
2022-10-11T22:01:21.242Z,59.37
2022-10-11T22:03:48.896Z,59.50
2022-10-11T22:06:16.878Z,59.45
2022-10-11T22:08:44.322Z,59.54
2022-10-11T22:11:12.131Z,60.03
2022-10-11T22:13:39.387Z,60.05
2022-10-11T22:16:09.280Z,59.99
2022-10-11T22:18:37.258Z,60.22
2022-10-11T22:21:07.003Z,60.17
2022-10-11T22:23:34.587Z,59.88
2022-10-11T22:26:07.001Z,60.03
2022-10-11T22:28:35.008Z,60.15
2022-10-11T22:31:05.188Z,60.14
2022-10-11T22:33:32.841Z,59.95
2022-10-11T22:36:02.063Z,59.83
2022-10-11T22:38:29.749Z,59.66
2022-10-11T22:40:59.830Z,59.74
2022-10-11T22:43:27.204Z,59.75
2022-10-11T22:45:54.769Z,59.87
2022-10-11T22:48:22.132Z,59.71
2022-10-11T22:50:49.466Z,59.79
2022-10-11T22:53:17.084Z,59.34
2022-10-11T22:55:44.629Z,59.42
2022-10-11T22:58:11.962Z,59.24
2022-10-11T23:00:39.594Z,59.68
2022-10-11T23:03:09.619Z,59.87
2022-10-11T23:05:36.938Z,59.96
2022-10-11T23:08:05.845Z,59.89
2022-10-11T23:10:33.132Z,59.52
2022-10-11T23:13:00.424Z,59.57
2022-10-11T23:15:27.984Z,59.74
2022-10-11T23:17:55.279Z,59.58
2022-10-11T23:20:22.558Z,59.91
2022-10-11T23:22:50.115Z,59.88
2022-10-11T23:25:17.389Z,59.89
2022-10-11T23:27:44.659Z,59.80
2022-10-11T23:30:12.947Z,60.01
2022-10-11T23:32:40.254Z,59.64
2022-10-11T23:35:08.052Z,59.79
2022-10-11T23:37:35.975Z,59.97
2022-10-11T23:40:04.144Z,59.97
2022-10-11T23:42:31.432Z,60.15
2022-10-11T23:44:59.220Z,60.25
2022-10-11T23:47:26.500Z,60.37
2022-10-11T23:49:53.802Z,60.40
2022-10-11T23:52:21.484Z,60.55
2022-10-11T23:54:48.866Z,60.57
2022-10-11T23:57:16.224Z,60.63
2022-10-11T23:59:43.787Z,60.70
